sensor_id;sensor_type;location;lat;lon;timestamp;pressure;altitude;pressure_sealevel;temperature
22828;BMP180;11580;52.562;13.418;2023-02-28T00:01:08;102141.00;;;6.20
22828;BMP180;11580;52.562;13.418;2023-02-28T00:03:35;102132.00;;;6.20
22828;BMP180;11580;52.562;13.418;2023-02-28T00:06:04;102126.00;;;6.20
22828;BMP180;11580;52.562;13.418;2023-02-28T00:08:31;102129.00;;;6.20
22828;BMP180;11580;52.562;13.418;2023-02-28T00:11:03;102137.00;;;6.20
22828;BMP180;11580;52.562;13.418;2023-02-28T00:13:34;102145.00;;;6.20
22828;BMP180;11580;52.562;13.418;2023-02-28T00:16:03;102133.00;;;6.20
22828;BMP180;11580;52.562;13.418;2023-02-28T00:18:31;102133.00;;;6.20
22828;BMP180;11580;52.562;13.418;2023-02-28T00:20:59;102133.00;;;6.20
22828;BMP180;11580;52.562;13.418;2023-02-28T00:23:27;102128.00;;;6.20
22828;BMP180;11580;52.562;13.418;2023-02-28T00:25:54;102131.00;;;6.20
22828;BMP180;11580;52.562;13.418;2023-02-28T00:28:24;102131.00;;;6.20
22828;BMP180;11580;52.562;13.418;2023-02-28T00:30:52;102135.00;;;6.20
22828;BMP180;11580;52.562;13.418;2023-02-28T00:33:22;102139.00;;;6.20
22828;BMP180;11580;52.562;13.418;2023-02-28T00:35:49;102145.00;;;6.30
22828;BMP180;11580;52.562;13.418;2023-02-28T00:38:17;102148.00;;;6.30
22828;BMP180;11580;52.562;13.418;2023-02-28T00:40:44;102136.00;;;6.30
22828;BMP180;11580;52.562;13.418;2023-02-28T00:43:11;102149.00;;;6.40
22828;BMP180;11580;52.562;13.418;2023-02-28T00:45:40;102137.00;;;6.40
22828;BMP180;11580;52.562;13.418;2023-02-28T00:48:07;102143.00;;;6.40
22828;BMP180;11580;52.562;13.418;2023-02-28T00:50:34;102143.00;;;6.40
22828;BMP180;11580;52.562;13.418;2023-02-28T00:53:01;102141.00;;;6.40
22828;BMP180;11580;52.562;13.418;2023-02-28T00:55:28;102145.00;;;6.40
22828;BMP180;11580;52.562;13.418;2023-02-28T00:57:55;102145.00;;;6.40
22828;BMP180;11580;52.562;13.418;2023-02-28T01:00:23;102137.00;;;6.40
22828;BMP180;11580;52.562;13.418;2023-02-28T01:02:51;102141.00;;;6.40
22828;BMP180;11580;52.562;13.418;2023-02-28T01:05:18;102142.00;;;6.50
22828;BMP180;11580;52.562;13.418;2023-02-28T01:07:46;102145.00;;;6.50
22828;BMP180;11580;52.562;13.418;2023-02-28T01:10:13;102138.00;;;6.50
22828;BMP180;11580;52.562;13.418;2023-02-28T01:12:40;102140.00;;;6.40
22828;BMP180;11580;52.562;13.418;2023-02-28T01:15:10;102143.00;;;6.40
22828;BMP180;11580;52.562;13.418;2023-02-28T01:17:38;102142.00;;;6.40
22828;BMP180;11580;52.562;13.418;2023-02-28T01:20:08;102134.00;;;6.40
22828;BMP180;11580;52.562;13.418;2023-02-28T01:22:36;102133.00;;;6.30
22828;BMP180;11580;52.562;13.418;2023-02-28T01:25:04;102139.00;;;6.30
22828;BMP180;11580;52.562;13.418;2023-02-28T01:27:33;102129.00;;;6.20
22828;BMP180;11580;52.562;13.418;2023-02-28T01:30:01;102125.00;;;6.20
22828;BMP180;11580;52.562;13.418;2023-02-28T01:32:28;102116.00;;;6.10
22828;BMP180;11580;52.562;13.418;2023-02-28T01:34:56;102121.00;;;6.00
22828;BMP180;11580;52.562;13.418;2023-02-28T01:37:24;102126.00;;;6.00
22828;BMP180;11580;52.562;13.418;2023-02-28T01:39:51;102111.00;;;5.90
22828;BMP180;11580;52.562;13.418;2023-02-28T01:42:20;102119.00;;;5.80
22828;BMP180;11580;52.562;13.418;2023-02-28T01:45:06;102115.00;;;5.80
22828;BMP180;11580;52.562;13.418;2023-02-28T01:47:42;102115.00;;;5.70
22828;BMP180;11580;52.562;13.418;2023-02-28T01:50:14;102119.00;;;5.70
22828;BMP180;11580;52.562;13.418;2023-02-28T01:52:45;102113.00;;;5.70
22828;BMP180;11580;52.562;13.418;2023-02-28T01:55:16;102112.00;;;5.70
22828;BMP180;11580;52.562;13.418;2023-02-28T01:57:50;102116.00;;;5.70
22828;BMP180;11580;52.562;13.418;2023-02-28T02:00:24;102112.00;;;5.70
22828;BMP180;11580;52.562;13.418;2023-02-28T02:02:56;102109.00;;;5.70
22828;BMP180;11580;52.562;13.418;2023-02-28T02:05:27;102118.00;;;5.70
22828;BMP180;11580;52.562;13.418;2023-02-28T02:08:04;102114.00;;;5.60
22828;BMP180;11580;52.562;13.418;2023-02-28T02:10:36;102110.00;;;5.60
22828;BMP180;11580;52.562;13.418;2023-02-28T02:13:30;102114.00;;;5.60
22828;BMP180;11580;52.562;13.418;2023-02-28T02:16:13;102110.00;;;5.50
22828;BMP180;11580;52.562;13.418;2023-02-28T02:18:46;102105.00;;;5.40
22828;BMP180;11580;52.562;13.418;2023-02-28T02:21:57;102110.00;;;5.40
22828;BMP180;11580;52.562;13.418;2023-02-28T02:25:08;102103.00;;;5.30
22828;BMP180;11580;52.562;13.418;2023-02-28T02:31:37;102106.00;;;5.10
22828;BMP180;11580;52.562;13.418;2023-02-28T02:34:43;102101.00;;;5.00
22828;BMP180;11580;52.562;13.418;2023-02-28T02:37:25;102104.00;;;4.90
22828;BMP180;11580;52.562;13.418;2023-02-28T02:40:04;102106.00;;;4.90
22828;BMP180;11580;52.562;13.418;2023-02-28T02:42:43;102109.00;;;4.80
22828;BMP180;11580;52.562;13.418;2023-02-28T02:45:18;102106.00;;;4.80
22828;BMP180;11580;52.562;13.418;2023-02-28T02:47:46;102107.00;;;4.70
22828;BMP180;11580;52.562;13.418;2023-02-28T02:50:23;102105.00;;;4.70
22828;BMP180;11580;52.562;13.418;2023-02-28T02:52:58;102103.00;;;4.70
22828;BMP180;11580;52.562;13.418;2023-02-28T02:55:31;102097.00;;;4.60
22828;BMP180;11580;52.562;13.418;2023-02-28T02:58:04;102109.00;;;4.60
22828;BMP180;11580;52.562;13.418;2023-02-28T03:00:37;102104.00;;;4.50
22828;BMP180;11580;52.562;13.418;2023-02-28T03:03:08;102107.00;;;4.50
22828;BMP180;11580;52.562;13.418;2023-02-28T03:05:45;102109.00;;;4.50
22828;BMP180;11580;52.562;13.418;2023-02-28T03:08:13;102108.00;;;4.40
22828;BMP180;11580;52.562;13.418;2023-02-28T03:10:43;102107.00;;;4.40
22828;BMP180;11580;52.562;13.418;2023-02-28T03:16:51;102102.00;;;4.30
22828;BMP180;11580;52.562;13.418;2023-02-28T03:19:41;102117.00;;;4.30
22828;BMP180;11580;52.562;13.418;2023-02-28T03:22:36;102114.00;;;4.30
22828;BMP180;11580;52.562;13.418;2023-02-28T03:25:13;102116.00;;;4.20
22828;BMP180;11580;52.562;13.418;2023-02-28T03:27:59;102117.00;;;4.20
22828;BMP180;11580;52.562;13.418;2023-02-28T03:30:38;102128.00;;;4.20
22828;BMP180;11580;52.562;13.418;2023-02-28T03:33:12;102114.00;;;4.20
22828;BMP180;11580;52.562;13.418;2023-02-28T03:35:45;102103.00;;;4.10
22828;BMP180;11580;52.562;13.418;2023-02-28T03:38:21;102117.00;;;4.10
22828;BMP180;11580;52.562;13.418;2023-02-28T03:40:58;102125.00;;;4.10
22828;BMP180;11580;52.562;13.418;2023-02-28T03:43:31;102114.00;;;4.10
22828;BMP180;11580;52.562;13.418;2023-02-28T03:46:06;102120.00;;;4.00
22828;BMP180;11580;52.562;13.418;2023-02-28T03:48:40;102109.00;;;4.00
22828;BMP180;11580;52.562;13.418;2023-02-28T03:51:16;102118.00;;;4.00
22828;BMP180;11580;52.562;13.418;2023-02-28T03:53:50;102116.00;;;4.00
22828;BMP180;11580;52.562;13.418;2023-02-28T03:56:22;102118.00;;;4.00
22828;BMP180;11580;52.562;13.418;2023-02-28T03:58:57;102118.00;;;3.90
22828;BMP180;11580;52.562;13.418;2023-02-28T04:01:31;102122.00;;;3.90
22828;BMP180;11580;52.562;13.418;2023-02-28T04:04:00;102129.00;;;3.90
22828;BMP180;11580;52.562;13.418;2023-02-28T04:06:32;102116.00;;;3.90
22828;BMP180;11580;52.562;13.418;2023-02-28T04:09:01;102127.00;;;3.90
22828;BMP180;11580;52.562;13.418;2023-02-28T04:11:34;102118.00;;;3.80
22828;BMP180;11580;52.562;13.418;2023-02-28T04:14:02;102120.00;;;3.80
22828;BMP180;11580;52.562;13.418;2023-02-28T04:16:30;102109.00;;;3.80
22828;BMP180;11580;52.562;13.418;2023-02-28T04:18:58;102112.00;;;3.80
22828;BMP180;11580;52.562;13.418;2023-02-28T04:21:28;102092.00;;;3.80
22828;BMP180;11580;52.562;13.418;2023-02-28T04:23:55;102118.00;;;3.70
22828;BMP180;11580;52.562;13.418;2023-02-28T04:26:29;102118.00;;;3.70
22828;BMP180;11580;52.562;13.418;2023-02-28T04:28:56;102117.00;;;3.70
22828;BMP180;11580;52.562;13.418;2023-02-28T04:31:24;102115.00;;;3.70
22828;BMP180;11580;52.562;13.418;2023-02-28T04:33:51;102122.00;;;3.70
22828;BMP180;11580;52.562;13.418;2023-02-28T04:36:18;102131.00;;;3.60
22828;BMP180;11580;52.562;13.418;2023-02-28T04:38:46;102126.00;;;3.60
22828;BMP180;11580;52.562;13.418;2023-02-28T04:41:13;102126.00;;;3.60
22828;BMP180;11580;52.562;13.418;2023-02-28T04:43:42;102126.00;;;3.60
22828;BMP180;11580;52.562;13.418;2023-02-28T04:46:10;102117.00;;;3.60
22828;BMP180;11580;52.562;13.418;2023-02-28T04:48:39;102128.00;;;3.60
22828;BMP180;11580;52.562;13.418;2023-02-28T04:51:09;102130.00;;;3.50
22828;BMP180;11580;52.562;13.418;2023-02-28T04:53:38;102128.00;;;3.50
22828;BMP180;11580;52.562;13.418;2023-02-28T04:56:08;102126.00;;;3.50
22828;BMP180;11580;52.562;13.418;2023-02-28T04:58:35;102130.00;;;3.50
22828;BMP180;11580;52.562;13.418;2023-02-28T05:01:06;102135.00;;;3.40
22828;BMP180;11580;52.562;13.418;2023-02-28T05:03:38;102130.00;;;3.40
22828;BMP180;11580;52.562;13.418;2023-02-28T05:06:07;102139.00;;;3.40
22828;BMP180;11580;52.562;13.418;2023-02-28T05:08:34;102138.00;;;3.40
22828;BMP180;11580;52.562;13.418;2023-02-28T05:11:02;102134.00;;;3.30
22828;BMP180;11580;52.562;13.418;2023-02-28T05:13:30;102134.00;;;3.30
22828;BMP180;11580;52.562;13.418;2023-02-28T05:15:57;102140.00;;;3.30
22828;BMP180;11580;52.562;13.418;2023-02-28T05:18:25;102137.00;;;3.20
22828;BMP180;11580;52.562;13.418;2023-02-28T05:20:52;102135.00;;;3.20
22828;BMP180;11580;52.562;13.418;2023-02-28T05:23:22;102141.00;;;3.20
22828;BMP180;11580;52.562;13.418;2023-02-28T05:25:49;102149.00;;;3.20
22828;BMP180;11580;52.562;13.418;2023-02-28T05:28:17;102148.00;;;3.20
22828;BMP180;11580;52.562;13.418;2023-02-28T05:30:48;102147.00;;;3.10
22828;BMP180;11580;52.562;13.418;2023-02-28T05:33:15;102144.00;;;3.10
22828;BMP180;11580;52.562;13.418;2023-02-28T05:35:44;102148.00;;;3.10
22828;BMP180;11580;52.562;13.418;2023-02-28T05:38:11;102136.00;;;3.10
22828;BMP180;11580;52.562;13.418;2023-02-28T05:40:39;102143.00;;;3.10
22828;BMP180;11580;52.562;13.418;2023-02-28T05:43:10;102145.00;;;3.10
22828;BMP180;11580;52.562;13.418;2023-02-28T05:45:37;102150.00;;;3.10
22828;BMP180;11580;52.562;13.418;2023-02-28T05:48:05;102145.00;;;3.10
22828;BMP180;11580;52.562;13.418;2023-02-28T05:50:32;102160.00;;;3.10
22828;BMP180;11580;52.562;13.418;2023-02-28T05:53:01;102155.00;;;3.10
22828;BMP180;11580;52.562;13.418;2023-02-28T05:55:29;102154.00;;;3.10
22828;BMP180;11580;52.562;13.418;2023-02-28T05:57:56;102151.00;;;3.10
22828;BMP180;11580;52.562;13.418;2023-02-28T06:00:23;102151.00;;;3.10
22828;BMP180;11580;52.562;13.418;2023-02-28T06:02:50;102152.00;;;3.10
22828;BMP180;11580;52.562;13.418;2023-02-28T06:05:22;102163.00;;;3.10
22828;BMP180;11580;52.562;13.418;2023-02-28T06:07:49;102161.00;;;3.10
22828;BMP180;11580;52.562;13.418;2023-02-28T06:10:18;102163.00;;;3.20
22828;BMP180;11580;52.562;13.418;2023-02-28T06:12:46;102167.00;;;3.20
22828;BMP180;11580;52.562;13.418;2023-02-28T06:15:15;102165.00;;;3.20
22828;BMP180;11580;52.562;13.418;2023-02-28T06:17:43;102164.00;;;3.20
22828;BMP180;11580;52.562;13.418;2023-02-28T06:20:12;102168.00;;;3.20
22828;BMP180;11580;52.562;13.418;2023-02-28T06:22:40;102169.00;;;3.30
22828;BMP180;11580;52.562;13.418;2023-02-28T06:25:09;102178.00;;;3.30
22828;BMP180;11580;52.562;13.418;2023-02-28T06:27:38;102180.00;;;3.30
22828;BMP180;11580;52.562;13.418;2023-02-28T06:30:06;102172.00;;;3.30
22828;BMP180;11580;52.562;13.418;2023-02-28T06:32:34;102180.00;;;3.40
22828;BMP180;11580;52.562;13.418;2023-02-28T06:35:01;102183.00;;;3.40
22828;BMP180;11580;52.562;13.418;2023-02-28T06:37:30;102189.00;;;3.40
22828;BMP180;11580;52.562;13.418;2023-02-28T06:39:58;102191.00;;;3.40
22828;BMP180;11580;52.562;13.418;2023-02-28T06:42:25;102193.00;;;3.50
22828;BMP180;11580;52.562;13.418;2023-02-28T06:44:56;102197.00;;;3.50
22828;BMP180;11580;52.562;13.418;2023-02-28T06:47:23;102201.00;;;3.60
22828;BMP180;11580;52.562;13.418;2023-02-28T06:49:51;102199.00;;;3.60
22828;BMP180;11580;52.562;13.418;2023-02-28T06:52:18;102200.00;;;3.60
22828;BMP180;11580;52.562;13.418;2023-02-28T06:54:45;102200.00;;;3.70
22828;BMP180;11580;52.562;13.418;2023-02-28T06:57:12;102213.00;;;3.70
22828;BMP180;11580;52.562;13.418;2023-02-28T06:59:39;102209.00;;;3.70
22828;BMP180;11580;52.562;13.418;2023-02-28T07:02:09;102209.00;;;3.80
22828;BMP180;11580;52.562;13.418;2023-02-28T07:04:36;102207.00;;;3.80
22828;BMP180;11580;52.562;13.418;2023-02-28T07:07:06;102214.00;;;3.80
22828;BMP180;11580;52.562;13.418;2023-02-28T07:09:33;102211.00;;;3.90
22828;BMP180;11580;52.562;13.418;2023-02-28T07:12:00;102219.00;;;4.00
22828;BMP180;11580;52.562;13.418;2023-02-28T07:14:27;102161.00;;;4.00
22828;BMP180;11580;52.562;13.418;2023-02-28T07:16:55;102218.00;;;4.10
22828;BMP180;11580;52.562;13.418;2023-02-28T07:19:23;102218.00;;;4.10
22828;BMP180;11580;52.562;13.418;2023-02-28T07:21:50;102211.00;;;4.10
22828;BMP180;11580;52.562;13.418;2023-02-28T07:24:18;102220.00;;;4.30
22828;BMP180;11580;52.562;13.418;2023-02-28T07:26:45;102215.00;;;4.40
22828;BMP180;11580;52.562;13.418;2023-02-28T07:29:12;102223.00;;;4.40
22828;BMP180;11580;52.562;13.418;2023-02-28T07:31:39;102224.00;;;4.40
22828;BMP180;11580;52.562;13.418;2023-02-28T07:34:06;102218.00;;;4.50
22828;BMP180;11580;52.562;13.418;2023-02-28T07:36:35;102231.00;;;4.60
22828;BMP180;11580;52.562;13.418;2023-02-28T07:39:02;102222.00;;;4.60
22828;BMP180;11580;52.562;13.418;2023-02-28T07:41:30;102221.00;;;4.40
22828;BMP180;11580;52.562;13.418;2023-02-28T07:43:59;102227.00;;;4.80
22828;BMP180;11580;52.562;13.418;2023-02-28T07:46:27;102236.00;;;4.90
22828;BMP180;11580;52.562;13.418;2023-02-28T07:49:01;102236.00;;;5.00
22828;BMP180;11580;52.562;13.418;2023-02-28T07:51:29;102234.00;;;5.10
22828;BMP180;11580;52.562;13.418;2023-02-28T07:53:57;102235.00;;;5.10
22828;BMP180;11580;52.562;13.418;2023-02-28T07:56:25;102233.00;;;5.20
22828;BMP180;11580;52.562;13.418;2023-02-28T07:58:52;102228.00;;;5.30
22828;BMP180;11580;52.562;13.418;2023-02-28T08:01:19;102234.00;;;5.40
22828;BMP180;11580;52.562;13.418;2023-02-28T08:03:46;102238.00;;;5.50
22828;BMP180;11580;52.562;13.418;2023-02-28T08:06:18;102238.00;;;5.60
22828;BMP180;11580;52.562;13.418;2023-02-28T08:08:46;102236.00;;;5.70
22828;BMP180;11580;52.562;13.418;2023-02-28T08:11:16;102234.00;;;5.80
22828;BMP180;11580;52.562;13.418;2023-02-28T08:13:43;102234.00;;;5.90
22828;BMP180;11580;52.562;13.418;2023-02-28T08:16:12;102246.00;;;6.00
22828;BMP180;11580;52.562;13.418;2023-02-28T08:18:43;102246.00;;;6.20
22828;BMP180;11580;52.562;13.418;2023-02-28T08:21:11;102236.00;;;6.30
22828;BMP180;11580;52.562;13.418;2023-02-28T08:23:39;102234.00;;;6.40
22828;BMP180;11580;52.562;13.418;2023-02-28T08:26:06;102234.00;;;6.50
22828;BMP180;11580;52.562;13.418;2023-02-28T08:28:35;102240.00;;;6.60
22828;BMP180;11580;52.562;13.418;2023-02-28T08:31:08;102239.00;;;6.70
22828;BMP180;11580;52.562;13.418;2023-02-28T08:33:36;102248.00;;;6.80
22828;BMP180;11580;52.562;13.418;2023-02-28T08:36:06;102256.00;;;6.90
22828;BMP180;11580;52.562;13.418;2023-02-28T08:38:33;102253.00;;;7.00
22828;BMP180;11580;52.562;13.418;2023-02-28T08:41:04;102239.00;;;7.10
22828;BMP180;11580;52.562;13.418;2023-02-28T08:43:35;102250.00;;;7.20
22828;BMP180;11580;52.562;13.418;2023-02-28T08:46:02;102246.00;;;7.30
22828;BMP180;11580;52.562;13.418;2023-02-28T08:48:33;102252.00;;;7.40
22828;BMP180;11580;52.562;13.418;2023-02-28T08:51:06;102259.00;;;7.50
22828;BMP180;11580;52.562;13.418;2023-02-28T08:53:35;102260.00;;;7.60
22828;BMP180;11580;52.562;13.418;2023-02-28T08:56:06;102255.00;;;7.70
22828;BMP180;11580;52.562;13.418;2023-02-28T08:58:35;102256.00;;;7.80
22828;BMP180;11580;52.562;13.418;2023-02-28T09:01:09;102256.00;;;7.90
22828;BMP180;11580;52.562;13.418;2023-02-28T09:03:36;102255.00;;;7.90
22828;BMP180;11580;52.562;13.418;2023-02-28T09:06:04;102258.00;;;8.00
22828;BMP180;11580;52.562;13.418;2023-02-28T09:08:31;102260.00;;;8.00
22828;BMP180;11580;52.562;13.418;2023-02-28T09:10:59;102253.00;;;8.10
22828;BMP180;11580;52.562;13.418;2023-02-28T09:13:28;102257.00;;;8.20
22828;BMP180;11580;52.562;13.418;2023-02-28T09:16:00;102264.00;;;8.20
22828;BMP180;11580;52.562;13.418;2023-02-28T09:18:28;102265.00;;;8.20
22828;BMP180;11580;52.562;13.418;2023-02-28T09:20:55;102268.00;;;8.30
22828;BMP180;11580;52.562;13.418;2023-02-28T09:23:24;102260.00;;;8.40
22828;BMP180;11580;52.562;13.418;2023-02-28T09:25:54;102260.00;;;8.40
22828;BMP180;11580;52.562;13.418;2023-02-28T09:28:22;102237.00;;;8.40
22828;BMP180;11580;52.562;13.418;2023-02-28T09:30:52;102260.00;;;8.50
22828;BMP180;11580;52.562;13.418;2023-02-28T09:33:21;102248.00;;;8.50
22828;BMP180;11580;52.562;13.418;2023-02-28T09:35:49;102267.00;;;8.60
22828;BMP180;11580;52.562;13.418;2023-02-28T09:38:17;102266.00;;;8.70
22828;BMP180;11580;52.562;13.418;2023-02-28T09:40:50;102254.00;;;8.80
22828;BMP180;11580;52.562;13.418;2023-02-28T09:43:22;102254.00;;;8.80
22828;BMP180;11580;52.562;13.418;2023-02-28T09:45:56;102265.00;;;8.90
22828;BMP180;11580;52.562;13.418;2023-02-28T09:48:35;102270.00;;;8.90
22828;BMP180;11580;52.562;13.418;2023-02-28T09:51:15;102260.00;;;8.90
22828;BMP180;11580;52.562;13.418;2023-02-28T09:53:50;102275.00;;;9.00
22828;BMP180;11580;52.562;13.418;2023-02-28T09:56:24;102267.00;;;9.00
22828;BMP180;11580;52.562;13.418;2023-02-28T09:58:58;102272.00;;;9.00
22828;BMP180;11580;52.562;13.418;2023-02-28T10:01:37;102279.00;;;8.90
22828;BMP180;11580;52.562;13.418;2023-02-28T10:04:16;102277.00;;;8.90
22828;BMP180;11580;52.562;13.418;2023-02-28T10:06:52;102272.00;;;8.80
22828;BMP180;11580;52.562;13.418;2023-02-28T10:09:24;102276.00;;;8.90
22828;BMP180;11580;52.562;13.418;2023-02-28T10:11:57;102275.00;;;8.90
22828;BMP180;11580;52.562;13.418;2023-02-28T10:14:30;102286.00;;;8.90
22828;BMP180;11580;52.562;13.418;2023-02-28T10:17:03;102279.00;;;9.00
22828;BMP180;11580;52.562;13.418;2023-02-28T10:19:41;102276.00;;;9.00
22828;BMP180;11580;52.562;13.418;2023-02-28T10:22:14;102281.00;;;9.00
22828;BMP180;11580;52.562;13.418;2023-02-28T10:24:45;102273.00;;;9.00
22828;BMP180;11580;52.562;13.418;2023-02-28T10:27:17;102273.00;;;9.00
22828;BMP180;11580;52.562;13.418;2023-02-28T10:29:49;102273.00;;;9.10
22828;BMP180;11580;52.562;13.418;2023-02-28T10:32:20;102267.00;;;9.10
22828;BMP180;11580;52.562;13.418;2023-02-28T10:34:56;102269.00;;;9.20
22828;BMP180;11580;52.562;13.418;2023-02-28T10:37:24;102269.00;;;9.20
22828;BMP180;11580;52.562;13.418;2023-02-28T10:39:51;102275.00;;;9.20
22828;BMP180;11580;52.562;13.418;2023-02-28T10:42:23;102284.00;;;9.10
22828;BMP180;11580;52.562;13.418;2023-02-28T10:45:10;102266.00;;;9.10
22828;BMP180;11580;52.562;13.418;2023-02-28T10:47:51;102277.00;;;9.00
22828;BMP180;11580;52.562;13.418;2023-02-28T10:50:51;102266.00;;;9.00
22828;BMP180;11580;52.562;13.418;2023-02-28T10:53:32;102279.00;;;8.90
22828;BMP180;11580;52.562;13.418;2023-02-28T10:56:03;102279.00;;;8.90
22828;BMP180;11580;52.562;13.418;2023-02-28T10:58:45;102262.00;;;8.90
22828;BMP180;11580;52.562;13.418;2023-02-28T11:01:16;102256.00;;;8.90
22828;BMP180;11580;52.562;13.418;2023-02-28T11:03:44;102249.00;;;8.90
22828;BMP180;11580;52.562;13.418;2023-02-28T11:06:18;102250.00;;;9.00
22828;BMP180;11580;52.562;13.418;2023-02-28T11:08:51;102250.00;;;9.10
22828;BMP180;11580;52.562;13.418;2023-02-28T11:11:20;102248.00;;;9.10
22828;BMP180;11580;52.562;13.418;2023-02-28T11:13:52;102237.00;;;9.10
22828;BMP180;11580;52.562;13.418;2023-02-28T11:16:20;102247.00;;;9.20
22828;BMP180;11580;52.562;13.418;2023-02-28T11:18:50;102227.00;;;9.20
22828;BMP180;11580;52.562;13.418;2023-02-28T11:21:24;102241.00;;;9.30
22828;BMP180;11580;52.562;13.418;2023-02-28T11:24:00;102232.00;;;9.30
22828;BMP180;11580;52.562;13.418;2023-02-28T11:26:44;102241.00;;;9.30
22828;BMP180;11580;52.562;13.418;2023-02-28T11:29:21;102234.00;;;9.30
22828;BMP180;11580;52.562;13.418;2023-02-28T11:32:12;102234.00;;;9.40
22828;BMP180;11580;52.562;13.418;2023-02-28T11:34:42;102209.00;;;9.40
22828;BMP180;11580;52.562;13.418;2023-02-28T11:37:18;102240.00;;;9.50
22828;BMP180;11580;52.562;13.418;2023-02-28T11:39:46;102235.00;;;9.50
22828;BMP180;11580;52.562;13.418;2023-02-28T11:42:50;102235.00;;;9.50
22828;BMP180;11580;52.562;13.418;2023-02-28T11:45:36;102238.00;;;9.50
22828;BMP180;11580;52.562;13.418;2023-02-28T11:48:20;102228.00;;;9.50
22828;BMP180;11580;52.562;13.418;2023-02-28T11:51:09;102236.00;;;9.50
22828;BMP180;11580;52.562;13.418;2023-02-28T11:54:00;102243.00;;;9.50
22828;BMP180;11580;52.562;13.418;2023-02-28T11:56:35;102227.00;;;9.40
22828;BMP180;11580;52.562;13.418;2023-02-28T11:59:27;102249.00;;;9.40
22828;BMP180;11580;52.562;13.418;2023-02-28T12:02:17;102240.00;;;9.40
22828;BMP180;11580;52.562;13.418;2023-02-28T12:07:49;102237.00;;;9.30
22828;BMP180;11580;52.562;13.418;2023-02-28T12:10:24;102239.00;;;9.30
22828;BMP180;11580;52.562;13.418;2023-02-28T12:13:16;102231.00;;;9.30
22828;BMP180;11580;52.562;13.418;2023-02-28T12:16:27;102233.00;;;9.20
22828;BMP180;11580;52.562;13.418;2023-02-28T12:19:20;102236.00;;;9.30
22828;BMP180;11580;52.562;13.418;2023-02-28T12:22:20;102216.00;;;9.30
22828;BMP180;11580;52.562;13.418;2023-02-28T12:25:45;102217.00;;;9.20
22828;BMP180;11580;52.562;13.418;2023-02-28T12:28:17;102224.00;;;9.20
22828;BMP180;11580;52.562;13.418;2023-02-28T12:30:54;102200.00;;;9.20
22828;BMP180;11580;52.562;13.418;2023-02-28T12:33:33;102206.00;;;9.20
22828;BMP180;11580;52.562;13.418;2023-02-28T12:36:09;102203.00;;;9.20
22828;BMP180;11580;52.562;13.418;2023-02-28T12:38:43;102198.00;;;9.20
22828;BMP180;11580;52.562;13.418;2023-02-28T12:41:17;102185.00;;;9.20
22828;BMP180;11580;52.562;13.418;2023-02-28T12:43:51;102161.00;;;9.20
22828;BMP180;11580;52.562;13.418;2023-02-28T12:46:24;102173.00;;;9.20
22828;BMP180;11580;52.562;13.418;2023-02-28T12:48:57;102164.00;;;9.40
22828;BMP180;11580;52.562;13.418;2023-02-28T12:51:26;102166.00;;;9.40
22828;BMP180;11580;52.562;13.418;2023-02-28T12:54:04;102170.00;;;9.50
22828;BMP180;11580;52.562;13.418;2023-02-28T12:56:47;102169.00;;;9.60
22828;BMP180;11580;52.562;13.418;2023-02-28T12:59:25;102161.00;;;9.60
22828;BMP180;11580;52.562;13.418;2023-02-28T13:02:13;102159.00;;;9.70
22828;BMP180;11580;52.562;13.418;2023-02-28T13:05:07;102149.00;;;9.60
22828;BMP180;11580;52.562;13.418;2023-02-28T13:10:44;102150.00;;;9.60
22828;BMP180;11580;52.562;13.418;2023-02-28T13:13:22;102151.00;;;9.60
22828;BMP180;11580;52.562;13.418;2023-02-28T13:16:03;102156.00;;;9.60
22828;BMP180;11580;52.562;13.418;2023-02-28T13:18:35;102150.00;;;9.60
22828;BMP180;11580;52.562;13.418;2023-02-28T13:21:07;102154.00;;;9.60
22828;BMP180;11580;52.562;13.418;2023-02-28T13:23:59;102152.00;;;9.60
22828;BMP180;11580;52.562;13.418;2023-02-28T13:27:36;102150.00;;;9.50
22828;BMP180;11580;52.562;13.418;2023-02-28T13:31:05;102142.00;;;9.40
22828;BMP180;11580;52.562;13.418;2023-02-28T13:33:34;102151.00;;;9.40
22828;BMP180;11580;52.562;13.418;2023-02-28T13:36:26;102151.00;;;9.50
22828;BMP180;11580;52.562;13.418;2023-02-28T13:38:57;102151.00;;;9.50
22828;BMP180;11580;52.562;13.418;2023-02-28T13:41:47;102152.00;;;9.50
22828;BMP180;11580;52.562;13.418;2023-02-28T13:44:18;102138.00;;;9.60
22828;BMP180;11580;52.562;13.418;2023-02-28T13:47:21;102140.00;;;9.60
22828;BMP180;11580;52.562;13.418;2023-02-28T13:49:52;102140.00;;;9.60
22828;BMP180;11580;52.562;13.418;2023-02-28T13:52:23;102143.00;;;9.60
22828;BMP180;11580;52.562;13.418;2023-02-28T13:55:21;102138.00;;;9.60
22828;BMP180;11580;52.562;13.418;2023-02-28T13:58:10;102138.00;;;9.70
22828;BMP180;11580;52.562;13.418;2023-02-28T14:01:04;102134.00;;;9.70
22828;BMP180;11580;52.562;13.418;2023-02-28T14:04:14;102109.00;;;9.70
22828;BMP180;11580;52.562;13.418;2023-02-28T14:06:48;102128.00;;;9.70
22828;BMP180;11580;52.562;13.418;2023-02-28T14:09:23;102125.00;;;9.70
22828;BMP180;11580;52.562;13.418;2023-02-28T14:11:52;102126.00;;;9.70
22828;BMP180;11580;52.562;13.418;2023-02-28T14:14:54;102125.00;;;9.70
22828;BMP180;11580;52.562;13.418;2023-02-28T14:17:24;102128.00;;;9.70
22828;BMP180;11580;52.562;13.418;2023-02-28T14:19:54;102126.00;;;9.70
22828;BMP180;11580;52.562;13.418;2023-02-28T14:22:50;102128.00;;;9.70
22828;BMP180;11580;52.562;13.418;2023-02-28T14:25:30;102127.00;;;9.70
22828;BMP180;11580;52.562;13.418;2023-02-28T14:28:12;102127.00;;;9.70
22828;BMP180;11580;52.562;13.418;2023-02-28T14:30:59;102127.00;;;9.70
22828;BMP180;11580;52.562;13.418;2023-02-28T14:34:05;102129.00;;;9.70
22828;BMP180;11580;52.562;13.418;2023-02-28T14:36:42;102119.00;;;9.70
22828;BMP180;11580;52.562;13.418;2023-02-28T14:39:14;102127.00;;;9.70
22828;BMP180;11580;52.562;13.418;2023-02-28T14:41:43;102127.00;;;9.60
22828;BMP180;11580;52.562;13.418;2023-02-28T14:44:18;102130.00;;;9.60
22828;BMP180;11580;52.562;13.418;2023-02-28T14:46:49;102115.00;;;9.60